Huron, SD

5:44 AM CDT on July 28, 2014 (GMT -0500)
Madison Municipal (KMDS) Elev 1716 ft | 44.01 °N, 97.08 °W | Change Station

Current weather conditions updated 14 minutes ago

Overcast
Overcast
57 °F
Feels Like 57 °F
N
6
Wind Variable Wind from NW

Today is forecast to be Warmer than yesterday.

Today
High -- | Low -- °F
--% Chance of Precip.
Yesterday
High -- | Low -- °F
Precip. -- in
6:15 AM 9:02 PM
New Moon, 2% visible
Pressure 30.27 in
Visibility 10.0 miles
Clouds Overcast 4200 ft
Dew Point 57 °F
Humidity 100%
Rainfall 0.00 in
Snow Depth Not available.
UV 0 out of 12
Pollen 6.90 out of 12
Air Quality Not available.
Flu Activity Not available.
METAR KMDS 281030Z AUTO 32005KT 10SM OVC042 14/14 A3027 RMK AO2

More Conditions Fewer Conditions

Pressure 30.27 in
Visibility 10.0 miles
Clouds Overcast 4200 ft
Dew Point 57 °F
Humidity 100%
Rainfall 0.00 in
Snow Depth Not available.
UV 0 out of 12
Pollen 6.90 out of 12
Air Quality Not available.
Flu Activity Not available.
METAR KMDS 281030Z AUTO 32005KT 10SM OVC042 14/14 A3027 RMK AO2

More Conditions Fewer Conditions

10-Day Weather Forecast

Almanac

Astronomy

Jul. 28, 2014 Rise Set
Actual Time 6:15 AM CDT 9:02 PM CDT
Civil Twilight 5:41 AM CDT 9:35 PM CDT
Nautical Twilight 4:59 AM CDT 10:18 PM CDT
Astronomical Twilight 4:09 AM CDT 11:07 PM CDT
Moon 8:04 AM CDT 9:37 PM CDT
Length of Visible Light 15h 54m
Length of Day
14h 46m
Tomorrow will be 2m 14s shorter.
New Moon, 2% of the Moon is Illuminated
Today
New Moon
Aug 3
First Quarter
Aug 10
Full
Aug 17
Last Quarter
Aug 25
New

Today's Extremes

State Highs State Lows

Community

WunderPhotos

Upload Photos

1,738,295 photos uploaded!

Nearby

Snow Depth

Station Depth Elevation
North Rapid Creek 0 in 6130 ft
Blind Park 1 in 6890 ft

Earthquake Activity

City Distance Mag. Time & Date
No recent earthquake activity has been reported nearby.
Minimum magnitude displayed is 2.5.

Coastal Water Temperatures

Place Temperature
No Stations Reporting

Nearby Weather Stations

Station Location Temp. Windchill Dew Point Humidity Wind Precip. Elev Updated Type
HADS JAMES RIVER AT HURON SD, Huron, SD 55 °F - - - North  at  - 0.00 in / hr 1220 ft 4:15 AM CDT MADIS
Iroquois SD, Iroquois, SD 48.2 °F 48 °F 48 °F 98% North  at  1.1 mph - / hr 1427 ft 5:31 AM CDT Normal

Show More Stations Show Fewer Stations